Time;durP1;ratioP1;P1;durP2;ratioP2;P2;SDS_P1;SDS_P2;PMS_P1;PMS_P2;Temp;Humidity;BMP_temperature;BMP_pressure;BME280_temperature;BME280_humidity;BME280_pressure;Samples;Min_cycle;Max_cycle;Signal;HPM_P1;HPM_P2
2022/05/16 00:02:13;;;;;;;10.13;2.78;;;;;;;26.78;38.13;101079.88;5054750;28;20060;-45
2022/05/16 00:04:45;;;;;;;9.98;2.90;;;;;;;26.81;38.28;101091.31;5056228;28;20021;-43
2022/05/16 00:07:14;;;;;;;8.68;2.10;;;;;;;26.83;37.89;101097.47;5055512;28;20051;-43
2022/05/16 00:09:41;;;;;;;10.55;3.05;;;;;;;26.70;38.28;101087.75;5055782;28;20052;-44
2022/05/16 00:12:11;;;;;;;8.15;2.75;;;;;;;26.58;38.59;101070.16;5054416;28;20123;-43
2022/05/16 00:14:40;;;;;;;9.98;2.88;;;;;;;26.59;38.69;101082.44;5054751;28;20024;-45
2022/05/16 00:17:08;;;;;;;11.13;3.55;;;;;;;26.59;38.74;101078.94;5055853;28;20415;-43
2022/05/16 00:19:37;;;;;;;10.38;2.88;;;;;;;26.64;38.72;101082.47;5055699;28;20037;-44
2022/05/16 00:22:05;;;;;;;12.23;3.20;;;;;;;26.55;38.44;101075.44;5071194;28;20497;-44
2022/05/16 00:24:34;;;;;;;13.95;3.75;;;;;;;26.46;38.63;101076.25;5055368;28;20052;-44
2022/05/16 00:27:03;;;;;;;8.70;2.35;;;;;;;26.49;38.78;101092.03;5054091;28;20033;-43
2022/05/16 00:29:31;;;;;;;12.82;3.22;;;;;;;26.36;39.00;101074.44;5070892;28;20471;-43
2022/05/16 00:32:00;;;;;;;10.13;3.30;;;;;;;26.47;38.94;101093.81;5053795;28;20040;-45
2022/05/16 00:34:28;;;;;;;13.32;3.08;;;;;;;26.53;38.53;101095.59;5055439;28;20021;-43
2022/05/16 00:36:57;;;;;;;10.88;2.80;;;;;;;26.50;38.84;101104.31;5055444;28;20055;-42
2022/05/16 00:39:25;;;;;;;12.13;3.60;;;;;;;26.51;38.76;101107.84;5053580;28;20024;-45
2022/05/16 00:41:55;;;;;;;8.02;2.30;;;;;;;26.50;38.68;101106.94;5055209;28;20029;-45
2022/05/16 00:44:24;;;;;;;11.65;2.63;;;;;;;26.58;38.53;101117.50;5055543;28;20080;-43
2022/05/16 00:46:52;;;;;;;8.93;2.63;;;;;;;26.63;38.46;101117.56;5054831;28;20374;-44
2022/05/16 00:49:27;;;;;;;10.20;2.80;;;;;;;26.62;38.52;101110.53;5053982;28;20084;-42
2022/05/16 00:52:01;;;;;;;10.93;3.33;;;;;;;26.51;38.61;101095.56;5055370;28;20136;-43
2022/05/16 00:54:33;;;;;;;10.82;3.33;;;;;;;26.54;38.51;101114.00;5054797;28;20063;-46
2022/05/16 00:57:05;;;;;;;8.00;2.80;;;;;;;26.49;38.38;101099.94;5053606;28;20021;-42
2022/05/16 00:59:52;;;;;;;8.90;2.30;;;;;;;26.52;38.68;101096.44;5053423;28;20481;-43
2022/05/16 01:05:09;;;;;;;9.30;2.47;;;;;;;26.52;38.70;101101.72;5050855;28;20111;-43
2022/05/16 01:07:41;;;;;;;8.68;3.08;;;;;;;26.47;38.77;101096.44;5054734;28;20037;-43
2022/05/16 01:10:12;;;;;;;7.75;2.40;;;;;;;26.51;38.52;101102.59;5054627;28;20474;-45
2022/05/16 01:12:43;;;;;;;11.43;2.90;;;;;;;26.53;38.44;101096.44;5054176;28;20467;-44
2022/05/16 01:15:16;;;;;;;10.38;3.05;;;;;;;26.61;38.20;101108.78;5054701;28;20028;-46
2022/05/16 01:17:46;;;;;;;11.32;3.40;;;;;;;26.57;38.66;101112.25;5053162;28;20112;-46
2022/05/16 01:20:15;;;;;;;10.57;3.20;;;;;;;26.55;38.33;101107.00;5053982;28;20028;-48
2022/05/16 01:22:54;;;;;;;10.15;3.15;;;;;;;26.53;38.45;101106.97;5054483;28;20078;-45
2022/05/16 01:25:23;;;;;;;9.85;2.33;;;;;;;26.54;38.56;101108.72;5054026;28;20049;-43
2022/05/16 01:27:57;;;;;;;8.57;2.55;;;;;;;26.43;38.73;101102.56;5054537;28;20025;-48
2022/05/16 01:30:29;;;;;;;9.57;3.00;;;;;;;26.38;38.81;101101.63;5054358;28;20051;-48
2022/05/16 01:32:58;;;;;;;13.18;3.28;;;;;;;26.31;39.01;101105.13;5054160;28;20479;-50
2022/05/16 01:35:29;;;;;;;9.25;2.88;;;;;;;26.25;39.11;101111.22;5054402;28;20029;-44
2022/05/16 01:38:39;;;;;;;10.95;2.85;;;;;;;26.28;39.20;101119.13;5052970;28;20124;-45
2022/05/16 01:40:46;;;;;;;10.25;2.90;;;;;;;26.26;39.36;101120.00;5056262;28;20120;-49
2022/05/16 01:43:15;;;;;;;10.02;2.88;;;;;;;26.21;38.98;101114.72;5054137;28;20079;-44
2022/05/16 01:45:45;;;;;;;13.00;2.92;;;;;;;26.33;38.94;101125.28;5052415;28;20521;-43
2022/05/16 01:48:15;;;;;;;12.27;4.10;;;;;;;26.29;39.36;101125.28;5053751;28;20033;-46
2022/05/16 01:50:44;;;;;;;10.40;3.10;;;;;;;26.25;39.31;101119.09;5053741;28;20082;-48
2022/05/16 01:53:13;;;;;;;13.85;3.40;;;;;;;26.17;39.20;101121.69;5053940;28;20028;-43
2022/05/16 01:55:42;;;;;;;12.75;2.92;;;;;;;26.24;38.93;101120.84;5053462;28;20060;-49
2022/05/16 01:58:11;;;;;;;9.23;3.25;;;;;;;26.18;39.28;101115.56;5053807;28;20068;-47
2022/05/16 02:00:40;;;;;;;9.73;3.22;;;;;;;26.19;39.41;101126.97;5053364;28;20429;-45
2022/05/16 02:03:09;;;;;;;14.60;3.47;;;;;;;26.20;39.40;101112.94;5052375;28;20044;-44
2022/05/16 02:05:38;;;;;;;7.72;2.70;;;;;;;26.16;39.30;101104.13;5052944;28;20429;-45
2022/05/16 02:08:07;;;;;;;10.98;3.33;;;;;;;26.23;39.14;101113.84;5053440;28;20479;-45
2022/05/16 02:10:35;;;;;;;14.73;3.45;;;;;;;26.19;39.18;101114.69;5052133;28;20120;-46
2022/05/16 02:13:04;;;;;;;13.18;3.60;;;;;;;26.19;39.44;101117.31;5053569;28;20028;-50
2022/05/16 02:15:34;;;;;;;10.77;2.92;;;;;;;26.18;39.29;101115.56;5053347;28;20024;-49
2022/05/16 02:18:04;;;;;;;9.95;3.22;;;;;;;26.15;39.45;101109.41;5053788;28;20386;-47
2022/05/16 02:20:33;;;;;;;12.93;3.38;;;;;;;26.18;39.30;101105.03;5052140;28;20029;-46
2022/05/16 02:25:49;;;;;;;14.35;3.03;;;;;;;26.15;39.59;101109.41;5031563;28;20045;-46
2022/05/16 02:28:19;;;;;;;12.52;3.38;;;;;;;26.15;39.53;101106.78;5033304;28;20387;-50
2022/05/16 02:30:48;;;;;;;9.98;2.92;;;;;;;26.15;39.46;101106.78;5033190;28;20041;-49
2022/05/16 02:33:18;;;;;;;10.52;2.92;;;;;;;26.16;39.48;101106.78;5033474;28;20036;-47
2022/05/16 02:35:47;;;;;;;12.82;3.28;;;;;;;26.17;39.24;101108.53;5032983;28;20457;-44
2022/05/16 02:38:17;;;;;;;12.35;2.97;;;;;;;26.15;39.31;101107.63;5033402;28;20067;-43
2022/05/16 02:40:46;;;;;;;11.40;2.63;;;;;;;26.16;39.17;101105.91;5033337;28;20428;-50
2022/05/16 02:43:14;;;;;;;9.40;2.78;;;;;;;26.05;39.29;101090.03;5033409;28;20026;-47
2022/05/16 02:45:43;;;;;;;9.98;3.13;;;;;;;26.19;39.42;101098.91;5032637;28;20108;-50
2022/05/16 02:48:11;;;;;;;10.20;2.72;;;;;;;26.17;39.48;101103.28;5033189;28;20041;-43
2022/05/16 02:50:40;;;;;;;11.55;3.20;;;;;;;26.15;39.54;101106.78;5033323;28;20055;-43
2022/05/16 02:53:10;;;;;;;12.65;3.60;;;;;;;26.18;39.04;101110.28;5032791;28;20108;-47
2022/05/16 02:55:38;;;;;;;11.73;2.78;;;;;;;26.21;38.96;101104.19;5032717;28;20033;-46
2022/05/16 02:58:09;;;;;;;7.05;2.70;;;;;;;26.20;39.19;101110.31;5033147;28;20082;-45
2022/05/16 03:00:38;;;;;;;7.03;2.70;;;;;;;26.17;39.19;101111.16;5033307;28;20041;-45
2022/05/16 03:03:07;;;;;;;9.82;3.05;;;;;;;26.16;38.99;101116.44;5033443;28;20112;-47
2022/05/16 03:05:36;;;;;;;8.75;2.65;;;;;;;26.14;39.07;101113.81;5032971;28;20022;-46
2022/05/16 03:08:04;;;;;;;11.27;2.88;;;;;;;26.17;39.13;101108.53;5032862;28;20044;-48
2022/05/16 03:10:33;;;;;;;9.65;2.80;;;;;;;26.19;39.18;101106.78;5033067;28;20021;-44
2022/05/16 03:13:01;;;;;;;9.82;3.28;;;;;;;26.11;39.24;101103.25;5032645;28;20022;-44
2022/05/16 03:15:30;;;;;;;12.10;2.85;;;;;;;26.13;39.65;101105.88;5033211;28;20374;-46
2022/05/16 03:17:59;;;;;;;9.95;2.42;;;;;;;26.11;39.22;101103.25;5032907;28;20108;-45
2022/05/16 03:20:28;;;;;;;8.65;2.60;;;;;;;26.06;39.49;101095.28;5032936;28;20052;-47
2022/05/16 03:22:56;;;;;;;9.63;2.78;;;;;;;26.06;39.47;101095.28;5032931;28;20053;-45
2022/05/16 03:25:25;;;;;;;8.68;2.75;;;;;;;26.02;39.53;101098.78;5052311;28;20091;-50
2022/05/16 03:27:53;;;;;;;10.13;2.80;;;;;;;25.99;39.51;101106.66;5051973;28;20120;-48
2022/05/16 03:30:22;;;;;;;12.75;3.50;;;;;;;25.97;39.81;101104.88;5052615;28;20025;-46
2022/05/16 03:32:50;;;;;;;11.10;3.33;;;;;;;25.98;39.83;101111.91;5052656;28;20025;-46
2022/05/16 03:35:22;;;;;;;16.02;3.88;;;;;;;26.03;39.57;101116.31;5053483;28;20124;-49
2022/05/16 03:37:50;;;;;;;7.90;2.35;;;;;;;26.03;39.42;101112.78;5056295;28;20021;-46
2022/05/16 03:41:00;;;;;;;9.57;3.22;;;;;;;26.04;39.27;101114.56;5056402;28;20052;-47
2022/05/16 03:43:06;;;;;;;9.65;2.65;;;;;;;26.06;39.31;101118.06;5052687;28;20033;-44
2022/05/16 03:45:34;;;;;;;10.52;2.75;;;;;;;26.05;39.20;101126.84;5056259;28;20078;-46
2022/05/16 03:48:03;;;;;;;8.25;2.05;;;;;;;25.90;39.19;101102.22;5056869;28;20036;-46
2022/05/16 03:50:32;;;;;;;8.18;2.22;;;;;;;26.01;39.48;101122.41;5056066;28;20099;-50
2022/05/16 03:53:01;;;;;;;9.00;2.45;;;;;;;26.00;39.72;101116.28;5056567;28;20091;-48
2022/05/16 03:55:31;;;;;;;9.15;2.45;;;;;;;26.01;39.54;101119.78;5054604;28;20049;-47
2022/05/16 03:58:00;;;;;;;9.18;2.58;;;;;;;26.05;39.35;101111.06;5055893;28;20029;-47
2022/05/16 04:00:29;;;;;;;9.55;2.40;;;;;;;26.04;39.45;101109.31;5056077;28;20043;-49
2022/05/16 04:02:57;;;;;;;9.02;2.67;;;;;;;26.02;39.31;101113.66;5056099;28;20029;-44
2022/05/16 04:05:26;;;;;;;7.28;2.40;;;;;;;25.96;39.33;101108.38;5054458;28;20086;-48
2022/05/16 04:07:54;;;;;;;6.10;2.35;;;;;;;26.04;39.16;101111.94;5055839;28;20561;-46
2022/05/16 04:10:23;;;;;;;8.63;2.53;;;;;;;26.04;39.31;101107.56;5055789;28;20033;-46
2022/05/16 04:12:51;;;;;;;8.82;2.35;;;;;;;25.94;39.43;101110.97;5055866;28;20021;-49
2022/05/16 04:15:21;;;;;;;10.45;3.08;;;;;;;25.89;39.48;101115.34;5055898;28;20029;-47
2022/05/16 04:17:50;;;;;;;11.18;2.72;;;;;;;25.87;39.99;101127.59;5055559;28;20021;-47
2022/05/16 04:20:19;;;;;;;8.48;2.45;;;;;;;25.82;39.75;101124.91;5055607;28;20112;-46
2022/05/16 04:22:47;;;;;;;9.30;2.67;;;;;;;25.77;40.09;101126.63;5055669;28;20025;-49
2022/05/16 04:25:18;;;;;;;9.68;3.10;;;;;;;25.78;40.14;101134.53;5055186;28;20045;-42
2022/05/16 04:27:47;;;;;;;9.13;3.08;;;;;;;25.77;39.98;101138.00;5056132;28;20025;-44
2022/05/16 04:30:15;;;;;;;12.55;3.00;;;;;;;25.75;40.10;101138.88;5055669;28;20025;-48
2022/05/16 04:32:44;;;;;;;12.40;3.38;;;;;;;25.72;40.35;101142.38;5055489;28;20033;-46
2022/05/16 04:35:13;;;;;;;11.30;2.88;;;;;;;25.78;40.12;101137.16;5054984;28;20027;-45
2022/05/16 04:37:42;;;;;;;14.63;3.50;;;;;;;25.74;40.15;101150.25;5055363;28;20037;-48
2022/05/16 04:40:11;;;;;;;8.40;2.83;;;;;;;25.79;39.96;101159.06;5055160;28;20031;-47
2022/05/16 04:42:40;;;;;;;9.52;2.80;;;;;;;25.78;40.09;101157.31;5055566;28;20028;-48
2022/05/16 04:45:29;;;;;;;10.32;2.65;;;;;;;25.81;39.77;101153.81;5055226;28;20029;-44
2022/05/16 04:48:01;;;;;;;12.25;3.10;;;;;;;25.82;39.86;101159.06;5054464;28;20116;-46
2022/05/16 04:50:33;;;;;;;8.77;3.17;;;;;;;25.79;40.14;101157.31;5070488;28;20063;-49
2022/05/16 04:53:01;;;;;;;11.82;2.88;;;;;;;25.76;40.17;101145.91;5054290;28;20070;-47
2022/05/16 04:55:31;;;;;;;8.18;2.67;;;;;;;25.79;39.95;101153.81;5053973;28;20091;-48
2022/05/16 04:57:59;;;;;;;8.65;2.58;;;;;;;25.75;40.30;101142.38;5054822;28;20029;-48
2022/05/16 05:00:27;;;;;;;15.02;3.63;;;;;;;25.70;40.27;101143.22;5054772;28;20029;-43
2022/05/16 05:02:57;;;;;;;8.45;2.38;;;;;;;25.63;40.55;101140.56;5054878;28;20424;-44
2022/05/16 05:05:25;;;;;;;10.30;2.80;;;;;;;25.76;40.08;101159.03;5054699;28;20025;-47
2022/05/16 05:07:54;;;;;;;16.25;3.72;;;;;;;25.72;40.41;101154.63;5054763;28;20155;-44
2022/05/16 05:16:10;;;;;;;14.05;3.63;;;;;;;25.72;40.82;101165.13;5050400;28;20041;-44
2022/05/16 05:18:40;;;;;;;15.45;4.00;;;;;;;25.67;40.89;101172.06;5052697;28;20029;-45
2022/05/16 05:21:09;;;;;;;14.95;4.60;;;;;;;25.67;40.79;101170.34;5054240;28;20032;-47
2022/05/16 05:23:39;;;;;;;11.48;3.40;;;;;;;25.66;40.65;101168.59;5054278;28;20491;-44
2022/05/16 05:26:09;;;;;;;15.00;3.60;;;;;;;25.71;41.30;101179.13;5052853;28;20037;-45
2022/05/16 05:28:38;;;;;;;13.73;3.10;;;;;;;25.69;40.64;101183.47;5054343;28;20082;-46
2022/05/16 05:31:11;;;;;;;13.57;3.50;;;;;;;25.68;41.07;101185.25;5054261;28;20530;-42
2022/05/16 05:33:39;;;;;;;15.73;4.32;;;;;;;25.70;40.88;101185.25;5054131;28;20025;-46
2022/05/16 05:36:08;;;;;;;14.95;3.30;;;;;;;25.65;41.17;101181.72;5054119;28;20494;-46
2022/05/16 05:38:37;;;;;;;18.02;4.05;;;;;;;25.66;41.08;101191.34;5054401;28;20044;-47
2022/05/16 05:41:10;;;;;;;11.05;3.13;;;;;;;25.68;41.06;101201.00;5053132;28;20048;-46
2022/05/16 05:43:39;;;;;;;14.63;4.03;;;;;;;25.62;40.92;101201.84;5054191;28;20151;-44
2022/05/16 05:46:08;;;;;;;13.98;3.60;;;;;;;25.64;41.46;101209.72;5053885;28;20108;-44
2022/05/16 05:48:36;;;;;;;16.27;3.80;;;;;;;25.65;41.28;101221.13;5053884;28;20379;-43
2022/05/16 05:51:05;;;;;;;14.18;3.47;;;;;;;25.60;41.57;101221.06;5052246;28;20031;-43
2022/05/16 05:53:33;;;;;;;17.45;4.68;;;;;;;25.67;41.05;101219.38;5053785;28;20033;-44
2022/05/16 05:56:02;;;;;;;14.13;3.30;;;;;;;25.59;41.14;101225.44;5053751;28;20139;-44
2022/05/16 05:58:32;;;;;;;17.15;4.72;;;;;;;25.62;41.46;101224.59;5053981;28;20517;-43
2022/05/16 06:01:01;;;;;;;17.77;3.72;;;;;;;25.68;40.99;101219.41;5053777;28;20083;-44
2022/05/16 06:03:30;;;;;;;11.40;3.67;;;;;;;25.67;41.43;101216.75;5054021;28;20413;-46
2022/05/16 06:05:59;;;;;;;18.90;3.63;;;;;;;25.71;41.32;101223.78;5052341;28;20028;-46
2022/05/16 06:08:27;;;;;;;15.73;4.38;;;;;;;25.66;41.53;101231.63;5053055;28;20111;-46
2022/05/16 06:10:56;;;;;;;13.68;3.83;;;;;;;25.58;41.37;101236.81;5053396;28;20537;-45
2022/05/16 06:13:24;;;;;;;13.07;3.55;;;;;;;25.66;41.06;101231.63;5053247;28;20028;-46
2022/05/16 06:15:52;;;;;;;11.38;3.03;;;;;;;25.77;40.82;101237.88;5053503;28;20483;-48
2022/05/16 06:18:21;;;;;;;15.07;3.20;;;;;;;25.77;41.03;101242.25;5053266;28;20037;-43
2022/05/16 06:20:49;;;;;;;12.07;3.78;;;;;;;25.85;40.78;101253.72;5053646;28;20470;-43
2022/05/16 06:23:17;;;;;;;15.18;3.78;;;;;;;25.86;40.82;101255.47;5053010;28;20025;-43
2022/05/16 06:25:46;;;;;;;11.38;3.03;;;;;;;25.81;40.48;101248.41;5053541;28;20078;-46
2022/05/16 06:28:20;;;;;;;15.40;3.78;;;;;;;25.92;40.55;101270.41;5053308;28;20021;-44
2022/05/16 06:30:51;;;;;;;12.50;3.33;;;;;;;25.97;40.26;101279.25;5068894;28;20031;-45
2022/05/16 06:33:22;;;;;;;8.60;2.40;;;;;;;25.98;40.27;101273.13;5053387;28;20065;-48
2022/05/16 06:35:51;;;;;;;17.70;4.25;;;;;;;26.00;40.52;101283.63;5053238;28;20024;-47
2022/05/16 06:38:21;;;;;;;9.20;2.90;;;;;;;25.99;40.30;101272.25;5053177;28;20351;-44
2022/05/16 06:40:50;;;;;;;11.40;2.92;;;;;;;26.04;40.39;101277.53;5053530;28;20029;-46
2022/05/16 06:43:21;;;;;;;13.32;3.13;;;;;;;26.01;40.35;101280.13;5053223;28;20033;-46
2022/05/16 06:45:50;;;;;;;10.35;2.72;;;;;;;26.01;40.19;101274.88;5053271;28;20074;-44
2022/05/16 06:48:19;;;;;;;10.13;3.15;;;;;;;26.02;40.50;101289.78;5052984;28;20367;-43
2022/05/16 06:50:49;;;;;;;10.80;3.38;;;;;;;26.05;40.24;101290.72;5053114;28;20028;-43
2022/05/16 06:53:21;;;;;;;9.23;2.83;;;;;;;26.01;40.44;101301.16;5051924;28;20490;-48
2022/05/16 06:55:50;;;;;;;13.65;2.97;;;;;;;25.99;40.47;101313.41;5053185;28;20075;-49
2022/05/16 06:58:18;;;;;;;11.60;2.85;;;;;;;26.00;40.32;101310.81;5052867;28;20024;-43
2022/05/16 07:00:47;;;;;;;12.07;3.45;;;;;;;25.92;40.50;101312.47;5053113;28;20033;-47
2022/05/16 07:03:16;;;;;;;14.82;3.00;;;;;;;25.96;40.58;101321.28;5052958;28;20544;-43
2022/05/16 07:05:45;;;;;;;9.10;2.40;;;;;;;25.93;40.58;101327.38;5052733;28;20074;-45
2022/05/16 07:08:13;;;;;;;10.25;2.72;;;;;;;25.93;40.59;101330.00;5052753;28;20037;-45
2022/05/16 07:10:42;;;;;;;9.18;2.78;;;;;;;25.92;40.58;101331.78;5054438;28;20509;-47
2022/05/16 07:13:11;;;;;;;10.40;3.22;;;;;;;25.99;40.21;101334.44;5057106;28;20029;-47
2022/05/16 07:15:39;;;;;;;14.23;3.83;;;;;;;25.95;40.43;101328.28;5056283;28;20036;-47
2022/05/16 07:18:08;;;;;;;9.20;2.80;;;;;;;25.96;40.33;101324.78;5056800;28;20029;-43
2022/05/16 07:20:36;;;;;;;10.20;2.72;;;;;;;26.01;40.20;101338.88;5056814;28;20029;-48
2022/05/16 07:23:05;;;;;;;10.57;3.05;;;;;;;26.00;40.27;101331.84;5056621;28;20061;-49
2022/05/16 07:27:56;;;;;;;8.23;2.70;;;;;;;26.02;40.40;101324.88;5056821;28;20463;-47
2022/05/16 07:28:22;;;;;;;10.68;2.55;;;;;;;26.00;40.14;101326.59;5055399;28;20039;-48
2022/05/16 07:30:51;;;;;;;9.15;2.35;;;;;;;26.04;40.33;101324.88;5056601;28;20029;-48
2022/05/16 07:33:19;;;;;;;14.73;3.75;;;;;;;25.96;40.59;101329.19;5056610;28;20029;-49
2022/05/16 07:35:50;;;;;;;14.68;4.00;;;;;;;25.90;40.40;101320.34;5056094;28;20033;-46
2022/05/16 07:38:20;;;;;;;8.50;2.50;;;;;;;25.87;40.57;101320.31;5054683;28;20028;-46
2022/05/16 07:40:49;;;;;;;10.07;2.70;;;;;;;25.88;40.76;101322.09;5055667;28;20398;-45
2022/05/16 07:43:17;;;;;;;11.20;3.00;;;;;;;25.87;41.02;101324.72;5056106;28;20036;-49
2022/05/16 07:45:46;;;;;;;12.90;3.15;;;;;;;25.84;40.85;101315.03;5055483;28;20170;-50
2022/05/16 07:48:15;;;;;;;14.15;3.17;;;;;;;25.90;40.46;101319.47;5055585;28;20029;-47
2022/05/16 07:50:44;;;;;;;10.15;3.40;;;;;;;25.94;40.81;101329.16;5056259;28;20045;-43
2022/05/16 07:53:14;;;;;;;9.50;3.40;;;;;;;25.93;40.95;101317.75;5055917;28;20390;-45
2022/05/16 07:55:44;;;;;;;14.48;3.55;;;;;;;25.98;41.04;101324.81;5055878;28;20516;-44
2022/05/16 07:58:13;;;;;;;16.65;3.13;;;;;;;26.02;40.84;101323.97;5056052;28;20075;-45
2022/05/16 08:00:42;;;;;;;15.50;3.92;;;;;;;25.99;40.99;101343.22;5056005;28;20040;-46
2022/05/16 08:03:13;;;;;;;11.43;2.90;;;;;;;25.98;41.11;101346.72;5056459;28;20025;-45
2022/05/16 08:05:42;;;;;;;9.55;2.70;;;;;;;26.04;40.61;101353.78;5055593;28;20067;-45
2022/05/16 08:11:00;;;;;;;12.15;3.10;;;;;;;26.07;40.80;101380.13;5048559;28;20079;-47
2022/05/16 08:13:29;;;;;;;12.57;2.85;;;;;;;26.05;40.61;101380.09;5056041;28;20037;-45
2022/05/16 08:15:58;;;;;;;11.35;2.67;;;;;;;26.04;40.55;101388.88;5056007;28;20482;-43
2022/05/16 08:18:27;;;;;;;11.45;3.33;;;;;;;26.04;40.67;101387.97;5055818;28;20033;-49
2022/05/16 08:20:56;;;;;;;12.40;2.88;;;;;;;26.01;40.78;101382.66;5055290;28;20021;-48
2022/05/16 08:23:28;;;;;;;13.75;2.97;;;;;;;25.99;40.92;101387.91;5052875;28;20079;-48
2022/05/16 08:25:58;;;;;;;10.65;2.42;;;;;;;25.96;40.65;101387.88;5055267;28;20040;-47
2022/05/16 08:28:27;;;;;;;10.32;2.50;;;;;;;25.94;40.68;101384.34;5055217;28;20497;-46
2022/05/16 08:30:55;;;;;;;10.55;2.95;;;;;;;25.98;40.79;101387.91;5055468;28;20079;-49
2022/05/16 08:33:24;;;;;;;11.07;2.65;;;;;;;25.96;40.84;101392.28;5055578;28;20112;-49
2022/05/16 08:41:31;;;;;;;11.57;2.53;;;;;;;25.96;40.75;101389.63;5051420;28;20036;-43
2022/05/16 08:44:11;;;;;;;13.23;3.00;;;;;;;25.98;40.63;101401.06;5054036;28;20025;-49
2022/05/16 08:46:46;;;;;;;12.15;3.08;;;;;;;26.04;40.68;101403.72;5053917;28;20028;-48
2022/05/16 08:49:28;;;;;;;13.55;2.80;;;;;;;26.04;40.65;101403.72;5055078;28;20025;-44
2022/05/16 08:52:03;;;;;;;11.55;3.20;;;;;;;25.98;40.99;101401.94;5054088;28;20029;-45
2022/05/16 08:54:38;;;;;;;13.60;3.08;;;;;;;25.98;41.00;101412.44;5054904;28;20075;-46
2022/05/16 08:57:09;;;;;;;14.38;2.95;;;;;;;25.99;41.10;101424.72;5053871;28;20411;-49
2022/05/16 08:59:40;;;;;;;14.23;3.38;;;;;;;25.93;41.20;101415.03;5053722;28;20087;-49
2022/05/16 09:02:28;;;;;;;14.77;3.72;;;;;;;25.94;40.97;101416.78;5038033;28;20033;-46
2022/05/16 09:05:12;;;;;;;7.20;2.42;;;;;;;25.92;41.28;101408.00;5053363;28;20051;-49
2022/05/16 09:07:51;;;;;;;10.30;3.20;;;;;;;26.00;40.87;101415.06;5053579;28;20532;-47
2022/05/16 09:10:23;;;;;;;12.15;3.00;;;;;;;26.01;41.05;101416.84;5054505;28;20063;-47
2022/05/16 09:13:05;;;;;;;10.80;2.85;;;;;;;25.98;41.10;101428.22;5055065;28;20021;-43
2022/05/16 09:15:38;;;;;;;12.00;3.38;;;;;;;25.96;41.02;101435.19;5054711;28;20096;-46
2022/05/16 09:18:24;;;;;;;11.77;2.90;;;;;;;25.86;41.20;101422.81;5054712;28;20032;-47
2022/05/16 09:20:58;;;;;;;12.00;2.85;;;;;;;25.86;41.68;101435.97;5053491;28;20028;-47
2022/05/16 09:23:48;;;;;;;11.75;3.42;;;;;;;25.92;40.92;101439.53;5053129;28;20468;-46
2022/05/16 09:26:29;;;;;;;10.00;2.45;;;;;;;25.95;41.36;101438.69;5044756;28;20107;-48
2022/05/16 09:29:18;;;;;;;11.38;2.75;;;;;;;26.00;41.09;101438.72;5053011;28;20375;-43
2022/05/16 09:31:48;;;;;;;7.68;2.88;;;;;;;26.02;41.13;101444.91;5050573;28;20033;-49
2022/05/16 09:34:17;;;;;;;10.77;3.20;;;;;;;26.05;40.59;101443.22;5053033;28;20032;-50
2022/05/16 09:36:49;;;;;;;11.23;3.55;;;;;;;26.05;40.70;101444.94;5054185;28;20028;-49
2022/05/16 09:39:21;;;;;;;10.23;2.72;;;;;;;26.07;40.69;101445.84;5054295;28;20487;-45
2022/05/16 09:41:50;;;;;;;9.65;2.75;;;;;;;26.09;40.55;101452.00;5054503;28;20029;-49
2022/05/16 09:44:55;;;;;;;8.82;2.60;;;;;;;26.10;40.49;101451.16;5053975;28;20398;-46
2022/05/16 09:47:38;;;;;;;13.60;3.30;;;;;;;26.13;40.62;101452.94;5053287;28;20033;-45
2022/05/16 09:50:07;;;;;;;8.15;2.63;;;;;;;26.12;40.69;101459.97;5053459;28;20033;-47
2022/05/16 09:53:01;;;;;;;8.98;2.90;;;;;;;26.12;40.53;101461.69;5054010;28;20486;-46
2022/05/16 09:55:33;;;;;;;14.38;3.83;;;;;;;26.17;40.93;101463.50;5050568;28;20033;-49
2022/05/16 09:58:04;;;;;;;8.73;3.00;;;;;;;26.15;40.83;101467.00;5053725;28;20032;-46
2022/05/16 10:00:38;;;;;;;9.52;2.70;;;;;;;26.16;40.98;101471.41;5052463;28;20025;-49
2022/05/16 10:03:22;;;;;;;10.35;3.22;;;;;;;26.15;41.05;101477.50;5053613;28;20435;-44
2022/05/16 10:05:51;;;;;;;11.65;3.00;;;;;;;26.13;41.16;101484.50;5068773;28;20056;-49
2022/05/16 10:08:30;;;;;;;11.55;3.20;;;;;;;26.12;41.08;101477.47;5052185;28;20029;-48
2022/05/16 10:11:01;;;;;;;10.88;3.15;;;;;;;26.11;41.33;101476.59;5053768;28;20400;-46
2022/05/16 10:13:30;;;;;;;10.60;3.60;;;;;;;26.15;41.21;101486.28;5052690;28;20021;-49
2022/05/16 10:16:00;;;;;;;13.32;3.15;;;;;;;26.12;41.17;101482.72;5053495;28;20021;-44
2022/05/16 10:18:31;;;;;;;16.83;3.85;;;;;;;26.11;41.22;101483.56;5052222;28;20489;-43
2022/05/16 10:21:03;;;;;;;9.55;2.83;;;;;;;26.13;41.00;101497.66;5052446;28;20028;-49
2022/05/16 10:23:38;;;;;;;7.82;3.00;;;;;;;26.13;41.09;101488.03;5052598;28;20491;-44
2022/05/16 10:26:11;;;;;;;12.40;3.00;;;;;;;26.19;40.97;101481.97;5051917;28;20036;-42
2022/05/16 10:28:43;;;;;;;8.27;2.75;;;;;;;26.24;40.99;101489.03;5051934;28;20043;-45
2022/05/16 10:34:17;;;;;;;11.20;3.22;;;;;;;26.27;41.11;101493.44;5052888;28;20041;-43
2022/05/16 10:36:50;;;;;;;10.20;2.65;;;;;;;26.25;41.01;101495.16;5052504;28;20021;-44
2022/05/16 10:39:23;;;;;;;10.82;2.25;;;;;;;26.27;41.24;101495.19;5035464;28;20025;-43
2022/05/16 10:41:58;;;;;;;10.88;2.90;;;;;;;26.28;41.70;101497.81;5053054;28;20032;-47
2022/05/16 10:44:49;;;;;;;10.55;3.20;;;;;;;26.32;41.49;101488.22;5053287;28;20032;-44
2022/05/16 10:47:23;;;;;;;15.05;3.30;;;;;;;26.37;41.25;101492.69;5049001;28;20552;-43
2022/05/16 10:50:17;;;;;;;13.80;3.03;;;;;;;26.38;41.34;101502.34;5053614;28;20032;-49
2022/05/16 10:52:55;;;;;;;12.90;2.42;;;;;;;26.42;41.49;101507.63;5052719;28;20475;-46
2022/05/16 10:55:23;;;;;;;11.10;3.08;;;;;;;26.35;41.20;101494.41;5051870;28;20071;-50
2022/05/16 10:57:53;;;;;;;9.90;2.88;;;;;;;26.40;41.15;101507.63;5052598;28;20044;-50
2022/05/16 11:00:31;;;;;;;8.57;2.70;;;;;;;26.42;41.31;101511.16;5052950;28;20033;-46
2022/05/16 11:03:03;;;;;;;11.95;3.05;;;;;;;26.44;41.13;101517.31;5052064;28;20071;-43
2022/05/16 11:05:39;;;;;;;9.80;2.75;;;;;;;26.43;41.04;101520.81;5052971;28;20064;-46
2022/05/16 11:08:19;;;;;;;11.05;3.42;;;;;;;26.42;41.25;101511.16;5053128;28;20025;-44
2022/05/16 11:11:25;;;;;;;9.48;3.28;;;;;;;26.43;41.18;101502.41;5053218;28;20029;-44
2022/05/16 11:14:04;;;;;;;10.90;2.88;;;;;;;26.42;41.23;101508.53;5049680;28;20477;-47
2022/05/16 11:16:36;;;;;;;16.48;2.92;;;;;;;26.39;40.95;101497.94;5051888;28;20025;-46
2022/05/16 11:19:23;;;;;;;11.63;3.17;;;;;;;26.45;41.30;101512.91;5052873;28;20025;-43
2022/05/16 11:22:12;;;;;;;11.73;3.13;;;;;;;26.46;40.91;101509.44;5047070;28;20048;-43
2022/05/16 11:24:53;;;;;;;8.02;2.85;;;;;;;26.46;41.08;101512.06;5052606;28;20037;-46
2022/05/16 11:27:36;;;;;;;9.50;2.92;;;;;;;26.49;40.66;101518.22;5052680;28;20048;-44
2022/05/16 11:30:42;;;;;;;9.43;2.83;;;;;;;26.52;40.52;101510.38;5052853;28;20021;-44
2022/05/16 11:33:08;;;;;;;;;;;;;;;26.54;40.62;101513.03;5049932;28;20033;-43
2022/05/16 11:35:45;;;;;;;9.20;2.45;;;;;;;26.52;40.75;101510.38;5052625;28;19913;-43
2022/05/16 11:38:37;;;;;;;10.27;2.78;;;;;;;26.51;40.86;101505.09;5051324;28;20044;-46
2022/05/16 11:41:28;;;;;;;7.47;2.80;;;;;;;26.58;40.91;101520.06;5047843;28;20033;-50
2022/05/16 11:44:20;;;;;;;9.60;3.05;;;;;;;26.59;41.16;101518.34;5049104;28;20037;-49
2022/05/16 11:47:13;;;;;;;8.32;2.47;;;;;;;26.60;41.06;101526.25;5043242;28;20044;-50
2022/05/16 11:50:05;;;;;;;9.85;2.70;;;;;;;26.63;40.99;101526.28;5048766;28;20033;-44
2022/05/16 11:52:41;;;;;;;8.70;2.30;;;;;;;26.63;41.07;101522.78;5048672;28;20128;-48
2022/05/16 12:00:58;;;;;;;9.57;2.72;;;;;;;26.65;40.98;101534.19;5051970;28;20040;-43
2022/05/16 12:03:33;;;;;;;;;;;;;;;26.73;40.93;101529.00;5056766;28;20381;-43
2022/05/16 12:06:24;;;;;;;5.07;1.92;;;;;;;26.78;40.68;101528.19;5056167;28;20324;-47
2022/05/16 12:09:15;;;;;;;7.30;2.38;;;;;;;26.73;41.43;101526.34;5051377;28;20036;-45
2022/05/16 12:11:52;;;;;;;7.50;2.90;;;;;;;26.67;41.40;101525.44;5055716;28;20474;-46